sensor_id;sensor_type;location;lat;lon;timestamp;pressure;altitude;pressure_sealevel;temperature;humidity
53916;BME280;39827;49.652;18.770;2024-03-29T00:01:59;73466.06;;;-149.71;76.96
53916;BME280;39827;49.652;18.770;2024-03-29T00:04:24;73480.13;;;-149.71;77.25
53916;BME280;39827;49.652;18.770;2024-03-29T00:06:49;73480.13;;;-149.71;77.54
53916;BME280;39827;49.652;18.770;2024-03-29T00:09:15;73484.16;;;-149.71;78.54
53916;BME280;39827;49.652;18.770;2024-03-29T00:11:40;73488.16;;;-149.71;79.33
53916;BME280;39827;49.652;18.770;2024-03-29T00:14:06;73490.19;;;-149.71;80.32
53916;BME280;39827;49.652;18.770;2024-03-29T00:16:31;73484.16;;;-149.71;80.36
53916;BME280;39827;49.652;18.770;2024-03-29T00:18:56;73498.22;;;-149.71;80.59
53916;BME280;39827;49.652;18.770;2024-03-29T00:21:22;73512.28;;;-149.71;80.99
53916;BME280;39827;49.652;18.770;2024-03-29T00:23:47;73508.25;;;-149.71;81.21
53916;BME280;39827;49.652;18.770;2024-03-29T00:26:13;73516.28;;;-149.71;82.42
53916;BME280;39827;49.652;18.770;2024-03-29T00:28:39;73500.22;;;-149.71;81.79
53916;BME280;39827;49.652;18.770;2024-03-29T00:31:04;73500.22;;;-149.71;80.86
53916;BME280;39827;49.652;18.770;2024-03-29T00:33:30;73504.22;;;-149.71;80.96
53916;BME280;39827;49.652;18.770;2024-03-29T00:35:56;73512.28;;;-149.71;80.63
53916;BME280;39827;49.652;18.770;2024-03-29T00:38:21;73516.28;;;-149.71;79.98
53916;BME280;39827;49.652;18.770;2024-03-29T00:40:47;73538.38;;;-149.71;79.30
53916;BME280;39827;49.652;18.770;2024-03-29T00:43:12;73550.44;;;-149.71;80.18
53916;BME280;39827;49.652;18.770;2024-03-29T00:45:37;73584.59;;;-149.71;80.01
53916;BME280;39827;49.652;18.770;2024-03-29T00:48:03;73614.72;;;-149.71;77.76
53916;BME280;39827;49.652;18.770;2024-03-29T00:50:29;73630.78;;;-149.71;80.60
53916;BME280;39827;49.652;18.770;2024-03-29T00:52:54;73636.81;;;-149.71;81.57
53916;BME280;39827;49.652;18.770;2024-03-29T00:55:19;73677.00;;;-149.71;83.54
53916;BME280;39827;49.652;18.770;2024-03-29T00:57:45;73701.09;;;-149.71;84.40
53916;BME280;39827;49.652;18.770;2024-03-29T01:00:11;73719.19;;;-149.71;85.51
53916;BME280;39827;49.652;18.770;2024-03-29T01:02:36;73721.19;;;-149.71;85.84
53916;BME280;39827;49.652;18.770;2024-03-29T01:05:02;73737.25;;;-149.71;85.33
53916;BME280;39827;49.652;18.770;2024-03-29T01:07:28;73781.47;;;-149.71;85.72
53916;BME280;39827;49.652;18.770;2024-03-29T01:09:53;73803.56;;;-149.71;86.94
53916;BME280;39827;49.652;18.770;2024-03-29T01:12:18;73811.59;;;-149.71;87.07
53916;BME280;39827;49.652;18.770;2024-03-29T01:14:45;73809.56;;;-149.71;86.95
53916;BME280;39827;49.652;18.770;2024-03-29T01:17:10;73837.69;;;-149.71;86.40
53916;BME280;39827;49.652;18.770;2024-03-29T01:19:36;73871.84;;;-149.71;86.96
53916;BME280;39827;49.652;18.770;2024-03-29T01:22:01;73871.84;;;-149.71;87.67
53916;BME280;39827;49.652;18.770;2024-03-29T01:24:27;73877.88;;;-149.71;87.57
53916;BME280;39827;49.652;18.770;2024-03-29T01:26:52;73897.97;;;-149.71;88.08
53916;BME280;39827;49.652;18.770;2024-03-29T01:29:19;73906.00;;;-149.71;87.42
53916;BME280;39827;49.652;18.770;2024-03-29T01:31:44;73893.94;;;-149.71;87.18
53916;BME280;39827;49.652;18.770;2024-03-29T01:34:09;73920.06;;;-149.71;87.40
53916;BME280;39827;49.652;18.770;2024-03-29T01:36:35;73924.09;;;-149.71;86.90
53916;BME280;39827;49.652;18.770;2024-03-29T01:39:00;73936.13;;;-149.71;87.54
53916;BME280;39827;49.652;18.770;2024-03-29T01:41:26;73934.13;;;-149.71;87.17
53916;BME280;39827;49.652;18.770;2024-03-29T01:43:54;73948.19;;;-149.71;87.65
53916;BME280;39827;49.652;18.770;2024-03-29T01:46:23;73944.19;;;-149.71;87.22
53916;BME280;39827;49.652;18.770;2024-03-29T01:48:50;73942.16;;;-149.71;87.04
53916;BME280;39827;49.652;18.770;2024-03-29T01:51:16;73956.22;;;-149.71;86.79
53916;BME280;39827;49.652;18.770;2024-03-29T01:53:43;73962.25;;;-149.71;87.25
53916;BME280;39827;49.652;18.770;2024-03-29T01:56:10;73982.34;;;-149.71;86.96
53916;BME280;39827;49.652;18.770;2024-03-29T01:58:36;73982.34;;;-149.71;87.03
53916;BME280;39827;49.652;18.770;2024-03-29T02:01:02;74022.53;;;-149.71;87.18
53916;BME280;39827;49.652;18.770;2024-03-29T02:03:29;74014.50;;;-149.71;87.12
53916;BME280;39827;49.652;18.770;2024-03-29T02:05:55;74024.53;;;-149.71;87.35
53916;BME280;39827;49.652;18.770;2024-03-29T02:08:22;74034.59;;;-149.71;87.63
53916;BME280;39827;49.652;18.770;2024-03-29T02:10:48;74042.63;;;-149.71;87.58
53916;BME280;39827;49.652;18.770;2024-03-29T02:13:14;74054.69;;;-149.71;87.91
53916;BME280;39827;49.652;18.770;2024-03-29T02:15:40;74062.72;;;-149.71;87.78
53916;BME280;39827;49.652;18.770;2024-03-29T02:18:06;74066.72;;;-149.71;87.96
53916;BME280;39827;49.652;18.770;2024-03-29T02:20:33;74078.78;;;-149.71;88.11
53916;BME280;39827;49.652;18.770;2024-03-29T02:23:11;74096.88;;;-149.71;87.96
53916;BME280;39827;49.652;18.770;2024-03-29T02:25:39;74096.88;;;-149.71;88.31
53916;BME280;39827;49.652;18.770;2024-03-29T02:28:05;74122.97;;;-149.71;88.38
53916;BME280;39827;49.652;18.770;2024-03-29T02:30:30;74135.03;;;-149.71;88.44
53916;BME280;39827;49.652;18.770;2024-03-29T02:32:57;74147.09;;;-149.71;88.76
53916;BME280;39827;49.652;18.770;2024-03-29T02:35:23;74165.16;;;-149.71;89.28
53916;BME280;39827;49.652;18.770;2024-03-29T02:37:48;74163.16;;;-149.71;89.27
53916;BME280;39827;49.652;18.770;2024-03-29T02:40:14;74159.16;;;-149.71;89.77
53916;BME280;39827;49.652;18.770;2024-03-29T02:42:39;74159.16;;;-149.71;89.28
53916;BME280;39827;49.652;18.770;2024-03-29T02:45:04;74151.09;;;-149.71;89.04
53916;BME280;39827;49.652;18.770;2024-03-29T02:47:30;74159.16;;;-149.71;89.08
53916;BME280;39827;49.652;18.770;2024-03-29T02:49:55;74159.16;;;-149.71;88.95
53916;BME280;39827;49.652;18.770;2024-03-29T02:52:21;74159.16;;;-149.71;88.88
53916;BME280;39827;49.652;18.770;2024-03-29T02:54:46;74153.13;;;-149.71;88.75
53916;BME280;39827;49.652;18.770;2024-03-29T02:57:11;74159.16;;;-149.71;88.80
53916;BME280;39827;49.652;18.770;2024-03-29T02:59:39;74171.19;;;-149.71;88.26
53916;BME280;39827;49.652;18.770;2024-03-29T03:02:05;74175.22;;;-149.71;87.91
53916;BME280;39827;49.652;18.770;2024-03-29T03:04:30;74175.22;;;-149.71;88.07
53916;BME280;39827;49.652;18.770;2024-03-29T03:06:55;74155.13;;;-149.71;88.40
53916;BME280;39827;49.652;18.770;2024-03-29T03:09:31;74149.09;;;-149.71;87.98
53916;BME280;39827;49.652;18.770;2024-03-29T03:12:15;74175.22;;;-149.71;88.02
53916;BME280;39827;49.652;18.770;2024-03-29T03:14:41;74177.22;;;-149.71;88.02
53916;BME280;39827;49.652;18.770;2024-03-29T03:17:07;74189.28;;;-149.71;88.03
53916;BME280;39827;49.652;18.770;2024-03-29T03:19:32;74183.25;;;-149.71;87.78
53916;BME280;39827;49.652;18.770;2024-03-29T03:21:57;74203.34;;;-149.71;88.31
53916;BME280;39827;49.652;18.770;2024-03-29T03:24:23;74217.41;;;-149.71;88.86
53916;BME280;39827;49.652;18.770;2024-03-29T03:26:48;74217.41;;;-149.71;88.79
53916;BME280;39827;49.652;18.770;2024-03-29T03:29:13;74237.50;;;-149.71;89.66
53916;BME280;39827;49.652;18.770;2024-03-29T03:31:39;74233.47;;;-149.71;89.46
53916;BME280;39827;49.652;18.770;2024-03-29T03:34:04;74219.41;;;-149.71;88.93
53916;BME280;39827;49.652;18.770;2024-03-29T03:36:30;74223.44;;;-149.71;89.31
53916;BME280;39827;49.652;18.770;2024-03-29T03:38:55;74213.38;;;-149.71;88.90
53916;BME280;39827;49.652;18.770;2024-03-29T03:41:21;74215.41;;;-149.71;88.64
53916;BME280;39827;49.652;18.770;2024-03-29T03:43:46;74241.53;;;-149.71;89.13
53916;BME280;39827;49.652;18.770;2024-03-29T03:46:11;74233.47;;;-149.71;89.44
53916;BME280;39827;49.652;18.770;2024-03-29T03:48:37;74239.50;;;-149.71;89.22
53916;BME280;39827;49.652;18.770;2024-03-29T03:51:02;74211.38;;;-149.71;88.47
53916;BME280;39827;49.652;18.770;2024-03-29T03:53:28;74217.41;;;-149.71;88.22
53916;BME280;39827;49.652;18.770;2024-03-29T03:55:53;74213.38;;;-149.71;88.53
53916;BME280;39827;49.652;18.770;2024-03-29T03:58:19;74217.41;;;-149.71;88.04
53916;BME280;39827;49.652;18.770;2024-03-29T04:00:44;74205.34;;;-149.71;87.64
53916;BME280;39827;49.652;18.770;2024-03-29T04:03:09;74213.38;;;-149.71;87.62
53916;BME280;39827;49.652;18.770;2024-03-29T04:05:36;74229.47;;;-149.71;87.25
53916;BME280;39827;49.652;18.770;2024-03-29T04:08:02;74231.47;;;-149.71;87.55
53916;BME280;39827;49.652;18.770;2024-03-29T04:10:27;74245.53;;;-149.71;87.28
53916;BME280;39827;49.652;18.770;2024-03-29T04:12:53;74263.63;;;-149.71;88.03
53916;BME280;39827;49.652;18.770;2024-03-29T04:15:18;74273.66;;;-149.71;87.97
53916;BME280;39827;49.652;18.770;2024-03-29T04:17:43;74267.63;;;-149.71;87.82
53916;BME280;39827;49.652;18.770;2024-03-29T04:20:09;74251.56;;;-149.71;87.80
53916;BME280;39827;49.652;18.770;2024-03-29T04:22:35;74255.59;;;-149.71;87.99
53916;BME280;39827;49.652;18.770;2024-03-29T04:25:00;74257.59;;;-149.71;87.89
53916;BME280;39827;49.652;18.770;2024-03-29T04:27:26;74279.69;;;-149.71;88.09
53916;BME280;39827;49.652;18.770;2024-03-29T04:29:52;74289.75;;;-149.71;88.55
53916;BME280;39827;49.652;18.770;2024-03-29T04:32:18;74291.75;;;-149.71;87.98
53916;BME280;39827;49.652;18.770;2024-03-29T04:34:47;74299.78;;;-149.71;87.78
53916;BME280;39827;49.652;18.770;2024-03-29T04:37:12;74311.84;;;-149.71;88.09
53916;BME280;39827;49.652;18.770;2024-03-29T04:39:37;74313.84;;;-149.71;87.99
53916;BME280;39827;49.652;18.770;2024-03-29T04:42:03;74319.88;;;-149.71;88.20
53916;BME280;39827;49.652;18.770;2024-03-29T04:44:28;74350.00;;;-149.71;87.58
53916;BME280;39827;49.652;18.770;2024-03-29T04:46:54;74348.00;;;-149.71;87.61
53916;BME280;39827;49.652;18.770;2024-03-29T04:49:22;74356.03;;;-149.71;87.69
53916;BME280;39827;49.652;18.770;2024-03-29T04:51:55;74352.03;;;-149.71;88.21
53916;BME280;39827;49.652;18.770;2024-03-29T04:54:20;74299.78;;;-149.71;87.86
53916;BME280;39827;49.652;18.770;2024-03-29T04:56:46;74225.44;;;-149.71;86.00
53916;BME280;39827;49.652;18.770;2024-03-29T04:59:11;74185.25;;;-149.71;84.44
53916;BME280;39827;49.652;18.770;2024-03-29T05:01:37;74131.00;;;-149.71;82.88
53916;BME280;39827;49.652;18.770;2024-03-29T05:04:02;74131.00;;;-149.71;82.75
53916;BME280;39827;49.652;18.770;2024-03-29T05:06:29;74141.06;;;-149.71;82.91
53916;BME280;39827;49.652;18.770;2024-03-29T05:08:54;74112.94;;;-149.71;82.40
53916;BME280;39827;49.652;18.770;2024-03-29T05:11:20;74116.94;;;-149.71;82.42
53916;BME280;39827;49.652;18.770;2024-03-29T05:13:46;74098.88;;;-149.71;82.08
53916;BME280;39827;49.652;18.770;2024-03-29T05:16:12;74082.81;;;-149.71;81.79
53916;BME280;39827;49.652;18.770;2024-03-29T05:18:37;74078.78;;;-149.71;81.61
53916;BME280;39827;49.652;18.770;2024-03-29T05:21:03;74092.84;;;-149.71;81.09
53916;BME280;39827;49.652;18.770;2024-03-29T05:23:28;74098.88;;;-149.71;81.24
53916;BME280;39827;49.652;18.770;2024-03-29T05:25:54;74082.81;;;-149.71;80.51
53916;BME280;39827;49.652;18.770;2024-03-29T05:28:19;74076.78;;;-149.71;80.32
53916;BME280;39827;49.652;18.770;2024-03-29T05:30:45;74090.84;;;-149.71;79.85
53916;BME280;39827;49.652;18.770;2024-03-29T05:33:10;74086.81;;;-149.71;79.79
53916;BME280;39827;49.652;18.770;2024-03-29T05:35:35;74090.84;;;-149.71;79.67
53916;BME280;39827;49.652;18.770;2024-03-29T05:38:01;74090.84;;;-149.71;79.44
53916;BME280;39827;49.652;18.770;2024-03-29T05:40:26;74070.75;;;-149.71;79.00
53916;BME280;39827;49.652;18.770;2024-03-29T05:42:53;74044.63;;;-149.71;79.19
53916;BME280;39827;49.652;18.770;2024-03-29T05:45:27;74036.59;;;-149.71;79.09
53916;BME280;39827;49.652;18.770;2024-03-29T05:47:54;74040.59;;;-149.71;78.84
53916;BME280;39827;49.652;18.770;2024-03-29T05:50:20;74036.59;;;-149.71;78.44
53916;BME280;39827;49.652;18.770;2024-03-29T05:52:45;74028.56;;;-149.71;78.34
53916;BME280;39827;49.652;18.770;2024-03-29T05:55:11;74016.50;;;-149.71;77.41
53916;BME280;39827;49.652;18.770;2024-03-29T05:57:36;74010.47;;;-149.71;77.27
53916;BME280;39827;49.652;18.770;2024-03-29T06:00:07;74002.44;;;-149.71;77.65
53916;BME280;39827;49.652;18.770;2024-03-29T06:02:36;74004.44;;;-149.71;77.79
53916;BME280;39827;49.652;18.770;2024-03-29T06:05:01;74006.47;;;-149.71;77.22
53916;BME280;39827;49.652;18.770;2024-03-29T06:07:26;73976.31;;;-149.71;76.88
53916;BME280;39827;49.652;18.770;2024-03-29T06:09:54;73976.31;;;-149.71;76.58
53916;BME280;39827;49.652;18.770;2024-03-29T06:12:19;73952.22;;;-149.71;76.12
53916;BME280;39827;49.652;18.770;2024-03-29T06:14:45;73908.00;;;-149.71;74.87
53916;BME280;39827;49.652;18.770;2024-03-29T06:17:29;73853.78;;;-149.71;73.44
53916;BME280;39827;49.652;18.770;2024-03-29T06:19:55;73781.47;;;-149.71;71.05
53916;BME280;39827;49.652;18.770;2024-03-29T06:22:27;73789.50;;;-149.71;71.19
53916;BME280;39827;49.652;18.770;2024-03-29T06:24:55;73757.34;;;-149.71;69.47
53916;BME280;39827;49.652;18.770;2024-03-29T06:27:27;73715.16;;;-149.71;67.51
53916;BME280;39827;49.652;18.770;2024-03-29T06:29:52;73674.97;;;-149.71;66.13
53916;BME280;39827;49.652;18.770;2024-03-29T06:32:17;73608.69;;;-149.71;60.02
53916;BME280;39827;49.652;18.770;2024-03-29T06:34:44;73532.34;;;-149.71;56.15
53916;BME280;39827;49.652;18.770;2024-03-29T06:37:10;73564.50;;;-149.71;56.12
53916;BME280;39827;49.652;18.770;2024-03-29T06:39:35;73480.13;;;-149.71;54.45
53916;BME280;39827;49.652;18.770;2024-03-29T06:42:01;73413.84;;;-149.71;51.54
53916;BME280;39827;49.652;18.770;2024-03-29T06:44:27;73407.81;;;-149.71;51.46
53916;BME280;39827;49.652;18.770;2024-03-29T06:46:52;73323.44;;;-149.71;50.38
53916;BME280;39827;49.652;18.770;2024-03-29T06:49:18;73325.47;;;-149.71;50.30
53916;BME280;39827;49.652;18.770;2024-03-29T06:51:43;73297.34;;;-149.71;49.08
53916;BME280;39827;49.652;18.770;2024-03-29T06:54:09;73375.69;;;-149.71;50.94
53916;BME280;39827;49.652;18.770;2024-03-29T06:56:34;73367.63;;;-149.71;51.60
53916;BME280;39827;49.652;18.770;2024-03-29T06:58:59;73476.13;;;-149.71;52.92
53916;BME280;39827;49.652;18.770;2024-03-29T07:01:25;73534.38;;;-149.71;54.54
53916;BME280;39827;49.652;18.770;2024-03-29T07:03:50;73391.75;;;-149.71;52.00
53916;BME280;39827;49.652;18.770;2024-03-29T07:06:16;73343.53;;;-149.71;50.80
53916;BME280;39827;49.652;18.770;2024-03-29T07:08:41;73349.56;;;-149.71;51.16
53916;BME280;39827;49.652;18.770;2024-03-29T07:11:06;73289.31;;;-149.71;49.42
53916;BME280;39827;49.652;18.770;2024-03-29T07:13:32;73251.13;;;-149.71;48.69
53916;BME280;39827;49.652;18.770;2024-03-29T07:15:59;73217.00;;;-149.71;48.52
53916;BME280;39827;49.652;18.770;2024-03-29T07:18:24;73142.69;;;-149.71;47.22
53916;BME280;39827;49.652;18.770;2024-03-29T07:20:50;73180.84;;;-149.71;46.90
53916;BME280;39827;49.652;18.770;2024-03-29T07:23:16;73198.91;;;-149.71;47.13
53916;BME280;39827;49.652;18.770;2024-03-29T07:25:44;73202.94;;;-149.71;47.65
53916;BME280;39827;49.652;18.770;2024-03-29T07:28:10;73221.00;;;-149.71;47.76
53916;BME280;39827;49.652;18.770;2024-03-29T07:30:37;73196.91;;;-149.71;47.72
53916;BME280;39827;49.652;18.770;2024-03-29T07:33:03;73132.63;;;-149.71;46.16
53916;BME280;39827;49.652;18.770;2024-03-29T07:35:29;73150.72;;;-149.71;46.06
53916;BME280;39827;49.652;18.770;2024-03-29T07:37:55;73140.66;;;-149.71;46.31
53916;BME280;39827;49.652;18.770;2024-03-29T07:40:21;73130.63;;;-149.71;45.64
53916;BME280;39827;49.652;18.770;2024-03-29T07:42:47;73120.59;;;-149.71;44.83
53916;BME280;39827;49.652;18.770;2024-03-29T07:45:12;73070.38;;;-149.71;44.29
53916;BME280;39827;49.652;18.770;2024-03-29T07:47:38;73108.53;;;-149.71;45.21
53916;BME280;39827;49.652;18.770;2024-03-29T07:50:04;73046.25;;;-149.71;44.03
53916;BME280;39827;49.652;18.770;2024-03-29T07:52:31;72979.97;;;-149.71;43.90
53916;BME280;39827;49.652;18.770;2024-03-29T07:54:57;73024.16;;;-149.71;44.13
53916;BME280;39827;49.652;18.770;2024-03-29T07:57:22;73122.59;;;-149.71;44.83
53916;BME280;39827;49.652;18.770;2024-03-29T07:59:50;73082.41;;;-149.71;44.74
53916;BME280;39827;49.652;18.770;2024-03-29T08:02:15;73064.34;;;-149.71;43.93
53916;BME280;39827;49.652;18.770;2024-03-29T08:04:41;72990.03;;;-149.71;42.64
53916;BME280;39827;49.652;18.770;2024-03-29T08:07:08;72969.94;;;-149.71;42.05
53916;BME280;39827;49.652;18.770;2024-03-29T08:09:33;72775.13;;;-149.71;39.47
53916;BME280;39827;49.652;18.770;2024-03-29T08:11:59;72755.03;;;-149.71;39.02
53916;BME280;39827;49.652;18.770;2024-03-29T08:14:25;72628.50;;;-149.71;37.24
53916;BME280;39827;49.652;18.770;2024-03-29T08:16:53;72805.25;;;-149.71;37.97
53916;BME280;39827;49.652;18.770;2024-03-29T08:19:19;72853.44;;;-149.71;39.15
53916;BME280;39827;49.652;18.770;2024-03-29T08:21:45;72841.41;;;-149.71;39.10
53916;BME280;39827;49.652;18.770;2024-03-29T08:24:10;72825.34;;;-149.71;38.43
53916;BME280;39827;49.652;18.770;2024-03-29T08:26:36;72857.47;;;-149.71;39.18
53916;BME280;39827;49.652;18.770;2024-03-29T08:29:02;72829.34;;;-149.71;37.87
53916;BME280;39827;49.652;18.770;2024-03-29T08:31:27;72845.41;;;-149.71;37.81
53916;BME280;39827;49.652;18.770;2024-03-29T08:33:53;72897.63;;;-149.71;38.48
53916;BME280;39827;49.652;18.770;2024-03-29T08:36:18;72921.75;;;-149.71;38.59
53916;BME280;39827;49.652;18.770;2024-03-29T08:38:44;72857.47;;;-149.71;38.10
53916;BME280;39827;49.652;18.770;2024-03-29T08:41:11;72859.47;;;-149.71;37.96
53916;BME280;39827;49.652;18.770;2024-03-29T08:43:37;72839.38;;;-149.71;37.05
53916;BME280;39827;49.652;18.770;2024-03-29T08:46:02;72843.41;;;-149.71;36.82
53916;BME280;39827;49.652;18.770;2024-03-29T08:48:28;72789.19;;;-149.71;37.60
53916;BME280;39827;49.652;18.770;2024-03-29T08:50:54;72821.31;;;-149.71;37.52
53916;BME280;39827;49.652;18.770;2024-03-29T08:53:20;72785.16;;;-149.71;37.05
53916;BME280;39827;49.652;18.770;2024-03-29T08:55:47;72698.81;;;-149.71;35.38
53916;BME280;39827;49.652;18.770;2024-03-29T08:58:13;72680.72;;;-149.71;35.32
53916;BME280;39827;49.652;18.770;2024-03-29T09:00:39;72734.94;;;-149.71;36.11
53916;BME280;39827;49.652;18.770;2024-03-29T09:03:04;72690.78;;;-149.71;35.82
53916;BME280;39827;49.652;18.770;2024-03-29T09:05:30;72632.53;;;-149.71;35.28
53916;BME280;39827;49.652;18.770;2024-03-29T09:07:56;72730.94;;;-149.71;35.39
53916;BME280;39827;49.652;18.770;2024-03-29T09:10:25;72755.03;;;-149.71;35.54
53916;BME280;39827;49.652;18.770;2024-03-29T09:12:52;72837.38;;;-149.71;36.57
53916;BME280;39827;49.652;18.770;2024-03-29T09:15:18;72853.44;;;-149.71;37.21
53916;BME280;39827;49.652;18.770;2024-03-29T09:17:44;72825.34;;;-149.71;36.80
53916;BME280;39827;49.652;18.770;2024-03-29T09:20:10;72825.34;;;-149.71;36.32
53916;BME280;39827;49.652;18.770;2024-03-29T09:22:35;72753.03;;;-149.71;35.81
53916;BME280;39827;49.652;18.770;2024-03-29T09:25:01;72662.66;;;-149.71;35.41
53916;BME280;39827;49.652;18.770;2024-03-29T09:27:28;72652.63;;;-149.71;34.21
53916;BME280;39827;49.652;18.770;2024-03-29T09:29:57;72544.16;;;-149.71;33.80
53916;BME280;39827;49.652;18.770;2024-03-29T09:32:22;72564.25;;;-149.71;32.63
53916;BME280;39827;49.652;18.770;2024-03-29T09:34:48;72598.38;;;-149.71;32.31
53916;BME280;39827;49.652;18.770;2024-03-29T09:37:14;72578.31;;;-149.71;32.34
53916;BME280;39827;49.652;18.770;2024-03-29T09:39:39;72552.19;;;-149.71;32.35
53916;BME280;39827;49.652;18.770;2024-03-29T09:42:06;72544.16;;;-149.71;31.71
53916;BME280;39827;49.652;18.770;2024-03-29T09:44:33;72732.94;;;-149.71;32.82
53916;BME280;39827;49.652;18.770;2024-03-29T09:47:04;72644.56;;;-149.71;32.80
53916;BME280;39827;49.652;18.770;2024-03-29T09:49:31;72648.59;;;-149.71;32.15
53916;BME280;39827;49.652;18.770;2024-03-29T09:51:58;72654.63;;;-149.71;32.75
53916;BME280;39827;49.652;18.770;2024-03-29T09:54:27;72656.63;;;-149.71;33.43
53916;BME280;39827;49.652;18.770;2024-03-29T09:56:55;72682.75;;;-149.71;32.94
53916;BME280;39827;49.652;18.770;2024-03-29T09:59:21;72704.84;;;-149.71;33.34
53916;BME280;39827;49.652;18.770;2024-03-29T10:01:48;72564.25;;;-149.71;33.06
53916;BME280;39827;49.652;18.770;2024-03-29T10:04:14;72544.16;;;-149.71;32.21
53916;BME280;39827;49.652;18.770;2024-03-29T10:06:40;72566.25;;;-149.71;32.24
53916;BME280;39827;49.652;18.770;2024-03-29T10:09:08;72532.13;;;-149.71;31.35
53916;BME280;39827;49.652;18.770;2024-03-29T10:11:36;72564.25;;;-149.71;31.90
53916;BME280;39827;49.652;18.770;2024-03-29T10:14:01;72588.34;;;-149.71;31.30
53916;BME280;39827;49.652;18.770;2024-03-29T10:16:30;72596.38;;;-149.71;31.68
53916;BME280;39827;49.652;18.770;2024-03-29T10:18:58;72578.31;;;-149.71;31.70
53916;BME280;39827;49.652;18.770;2024-03-29T10:21:26;72684.75;;;-149.71;32.34
53916;BME280;39827;49.652;18.770;2024-03-29T10:23:52;72676.72;;;-149.71;31.68
53916;BME280;39827;49.652;18.770;2024-03-29T10:26:18;72660.66;;;-149.71;30.92
53916;BME280;39827;49.652;18.770;2024-03-29T10:28:46;72560.22;;;-149.71;30.74
53916;BME280;39827;49.652;18.770;2024-03-29T10:31:11;72564.25;;;-149.71;30.89
53916;BME280;39827;49.652;18.770;2024-03-29T10:33:37;72668.69;;;-149.71;30.86
53916;BME280;39827;49.652;18.770;2024-03-29T10:36:03;72616.47;;;-149.71;30.91
53916;BME280;39827;49.652;18.770;2024-03-29T10:38:33;72548.19;;;-149.71;29.85
53916;BME280;39827;49.652;18.770;2024-03-29T10:40:59;72572.28;;;-149.71;30.66
53916;BME280;39827;49.652;18.770;2024-03-29T10:43:26;72524.09;;;-149.71;29.98
53916;BME280;39827;49.652;18.770;2024-03-29T10:45:53;72544.16;;;-149.71;30.27
53916;BME280;39827;49.652;18.770;2024-03-29T10:48:25;72520.06;;;-149.71;30.05
53916;BME280;39827;49.652;18.770;2024-03-29T10:50:53;72576.28;;;-149.71;30.39
53916;BME280;39827;49.652;18.770;2024-03-29T10:53:20;72610.44;;;-149.71;30.62
53916;BME280;39827;49.652;18.770;2024-03-29T10:55:48;72592.38;;;-149.71;30.70
53916;BME280;39827;49.652;18.770;2024-03-29T10:58:16;72612.44;;;-149.71;30.98
53916;BME280;39827;49.652;18.770;2024-03-29T11:00:47;72502.00;;;-149.71;31.35
53916;BME280;39827;49.652;18.770;2024-03-29T11:03:26;72532.13;;;-149.71;31.01
53916;BME280;39827;49.652;18.770;2024-03-29T11:05:59;72457.81;;;-149.71;31.10
53916;BME280;39827;49.652;18.770;2024-03-29T11:08:31;72600.41;;;-149.71;31.47
53916;BME280;39827;49.652;18.770;2024-03-29T11:11:00;72560.22;;;-149.71;31.57
53916;BME280;39827;49.652;18.770;2024-03-29T11:13:34;72560.22;;;-149.71;31.19
53916;BME280;39827;49.652;18.770;2024-03-29T11:16:02;72524.09;;;-149.71;31.37
53916;BME280;39827;49.652;18.770;2024-03-29T11:18:28;72534.13;;;-149.71;31.28
53916;BME280;39827;49.652;18.770;2024-03-29T11:20:56;72626.50;;;-149.71;33.18
53916;BME280;39827;49.652;18.770;2024-03-29T11:23:22;72516.06;;;-149.71;31.72
53916;BME280;39827;49.652;18.770;2024-03-29T11:25:49;72534.13;;;-149.71;32.31
53916;BME280;39827;49.652;18.770;2024-03-29T11:28:23;72522.06;;;-149.71;32.14
53916;BME280;39827;49.652;18.770;2024-03-29T11:30:50;72596.38;;;-149.71;32.71
53916;BME280;39827;49.652;18.770;2024-03-29T11:33:30;72554.22;;;-149.71;32.75
53916;BME280;39827;49.652;18.770;2024-03-29T11:35:56;72522.06;;;-149.71;32.89
53916;BME280;39827;49.652;18.770;2024-03-29T11:38:29;72550.19;;;-149.71;32.89
53916;BME280;39827;49.652;18.770;2024-03-29T11:41:03;72610.44;;;-149.71;33.18
53916;BME280;39827;49.652;18.770;2024-03-29T11:43:33;72568.25;;;-149.71;33.31
53916;BME280;39827;49.652;18.770;2024-03-29T11:46:00;72568.25;;;-149.71;33.27
53916;BME280;39827;49.652;18.770;2024-03-29T11:48:29;72606.41;;;-149.71;34.04
53916;BME280;39827;49.652;18.770;2024-03-29T11:50:59;72518.06;;;-149.71;33.71
53916;BME280;39827;49.652;18.770;2024-03-29T11:53:25;72578.31;;;-149.71;34.07
53916;BME280;39827;49.652;18.770;2024-03-29T11:55:52;72445.75;;;-149.71;33.01
53916;BME280;39827;49.652;18.770;2024-03-29T11:58:20;72447.78;;;-149.71;32.78
53916;BME280;39827;49.652;18.770;2024-03-29T12:00:46;72568.25;;;-149.71;33.83
53916;BME280;39827;49.652;18.770;2024-03-29T12:03:17;72544.16;;;-149.71;33.90
53916;BME280;39827;49.652;18.770;2024-03-29T12:05:44;72524.09;;;-149.71;33.78
53916;BME280;39827;49.652;18.770;2024-03-29T12:08:09;72540.16;;;-149.71;34.78
53916;BME280;39827;49.652;18.770;2024-03-29T12:10:36;72447.78;;;-149.71;33.24
53916;BME280;39827;49.652;18.770;2024-03-29T12:13:04;72542.16;;;-149.71;34.40
53916;BME280;39827;49.652;18.770;2024-03-29T12:15:30;72532.13;;;-149.71;34.46
53916;BME280;39827;49.652;18.770;2024-03-29T12:17:57;72612.44;;;-149.71;35.07
53916;BME280;39827;49.652;18.770;2024-03-29T12:20:23;72556.22;;;-149.71;35.14
53916;BME280;39827;49.652;18.770;2024-03-29T12:22:48;72487.94;;;-149.71;35.05
53916;BME280;39827;49.652;18.770;2024-03-29T12:25:15;72467.84;;;-149.71;34.32
53916;BME280;39827;49.652;18.770;2024-03-29T12:27:43;72526.09;;;-149.71;34.81